createdAt,value
2023-01-26T08:18:15.598Z,102025.94
2023-01-26T08:22:37.556Z,102036.22
2023-01-26T08:26:45.604Z,101977.91
2023-01-26T08:30:47.172Z,102006.84
2023-01-26T08:34:54.576Z,102003.41
2023-01-26T08:39:09.761Z,102030.63
2023-01-26T08:43:18.677Z,102013.34
2023-01-26T08:47:26.590Z,101976.53
2023-01-26T08:51:34.616Z,101975.56
2023-01-26T08:55:42.540Z,102017.31
2023-01-26T08:59:50.577Z,102001.34
2023-01-26T09:03:59.579Z,102026.84
2023-01-26T09:08:07.606Z,102034.63
2023-01-26T09:12:15.603Z,102010.81
2023-01-26T09:16:26.809Z,102014.97
2023-01-26T09:20:34.781Z,102049.97
2023-01-26T09:24:42.823Z,102052.19
2023-01-26T09:29:00.594Z,102056.22
2023-01-26T09:33:10.605Z,102053.72
2023-01-26T09:37:18.575Z,102023.09
2023-01-26T09:41:43.144Z,102055.31
2023-01-26T09:46:09.661Z,102057.63
2023-01-26T09:50:25.612Z,102053.91
2023-01-26T09:54:56.765Z,102068.19
2023-01-26T09:59:28.581Z,102056.81
2023-01-26T10:03:43.729Z,102047.41
2023-01-26T10:07:52.742Z,102041.31
2023-01-26T10:12:15.136Z,102058.25
2023-01-26T10:16:23.724Z,102051.28
2023-01-26T10:20:41.021Z,102040.97
2023-01-26T10:24:50.621Z,102045.16
2023-01-26T10:29:00.573Z,102029.41
2023-01-26T10:33:08.597Z,101981.69
2023-01-26T10:37:32.628Z,102026.13
2023-01-26T10:41:34.376Z,102007.00
2023-01-26T10:45:52.560Z,102019.44
2023-01-26T10:50:27.595Z,102021.78
2023-01-26T10:54:35.620Z,102024.06
2023-01-26T10:58:49.261Z,102016.69
2023-01-26T11:03:00.781Z,101999.31
2023-01-26T11:07:40.572Z,102007.53
2023-01-26T11:11:48.553Z,101998.63
2023-01-26T11:16:09.636Z,101984.13
2023-01-26T11:20:35.550Z,102004.75
2023-01-26T11:25:24.868Z,102003.81
2023-01-26T11:30:03.573Z,101990.88
2023-01-26T11:34:20.781Z,102002.88
2023-01-26T11:38:40.732Z,102006.28
2023-01-26T11:42:58.831Z,102004.97
2023-01-26T11:47:28.614Z,101999.41
2023-01-26T11:51:45.744Z,101993.22
2023-01-26T11:56:13.696Z,101983.25
2023-01-26T12:00:31.193Z,101959.13
2023-01-26T12:04:51.607Z,101981.16
2023-01-26T12:09:17.584Z,101947.84
2023-01-26T12:13:45.627Z,101962.41
2023-01-26T12:18:18.943Z,101968.00
2023-01-26T12:22:35.767Z,101963.75
2023-01-26T12:26:53.607Z,101914.69
2023-01-26T12:31:16.908Z,101953.31
2023-01-26T12:36:04.731Z,101953.97
2023-01-26T12:40:24.585Z,101950.75
2023-01-26T12:44:46.768Z,101929.19
2023-01-26T12:49:29.606Z,101918.81
2023-01-26T12:53:49.596Z,101928.34
2023-01-26T12:57:56.783Z,101928.28
2023-01-26T13:02:26.006Z,101932.47
